createdAt,value
2018-10-07T00:01:02.757Z,101164.42
2018-10-07T00:04:06.155Z,101169.51
2018-10-07T00:07:09.803Z,101167.78
2018-10-07T00:10:13.304Z,101176.19
2018-10-07T00:13:16.785Z,101174.27
2018-10-07T00:16:20.413Z,101178.69
2018-10-07T00:19:23.951Z,101180.04
2018-10-07T00:22:27.383Z,101185.94
2018-10-07T00:25:30.772Z,101196.19
2018-10-07T00:28:34.193Z,101196.79
2018-10-07T00:31:42.970Z,101199.07
2018-10-07T00:34:47.472Z,101203.89
2018-10-07T00:37:50.784Z,101207.02
2018-10-07T00:40:54.273Z,101206.31
2018-10-07T00:43:57.815Z,101214.61
2018-10-07T00:47:01.314Z,101211.20
2018-10-07T00:50:04.825Z,101212.77
2018-10-07T00:53:08.231Z,101219.82
2018-10-07T00:56:11.746Z,101220.85
2018-10-07T00:59:15.148Z,101224.18
2018-10-07T01:02:18.557Z,101220.47
2018-10-07T01:05:21.956Z,101210.91
2018-10-07T01:08:25.447Z,101215.01
2018-10-07T01:11:28.878Z,101215.06
2018-10-07T01:14:32.219Z,101216.18
2018-10-07T01:17:35.664Z,101222.22
2018-10-07T01:20:39.098Z,101228.57
2018-10-07T01:23:42.533Z,101225.20
2018-10-07T01:26:46.048Z,101228.51
2018-10-07T01:29:49.437Z,101235.02
2018-10-07T01:32:54.773Z,101236.47
2018-10-07T01:35:58.502Z,101229.79
2018-10-07T01:39:01.905Z,101229.70
2018-10-07T01:42:05.328Z,101234.05
2018-10-07T01:45:08.723Z,101238.82
2018-10-07T01:48:12.090Z,101238.70
2018-10-07T01:51:15.503Z,101241.37
2018-10-07T01:54:18.890Z,101245.66
2018-10-07T01:57:22.298Z,101251.24
2018-10-07T02:00:25.693Z,101250.51
2018-10-07T02:03:29.093Z,101255.07
2018-10-07T02:06:32.492Z,101258.80
2018-10-07T02:09:35.894Z,101261.68
2018-10-07T02:12:39.326Z,101262.50
2018-10-07T02:15:42.701Z,101263.95
2018-10-07T02:18:46.092Z,101265.16
2018-10-07T02:21:49.561Z,101258.49
2018-10-07T02:24:52.897Z,101267.54
2018-10-07T02:27:56.313Z,101269.97
2018-10-07T02:30:59.847Z,101274.95
2018-10-07T02:34:03.411Z,101279.08
2018-10-07T02:37:06.937Z,101275.23
2018-10-07T02:40:10.413Z,101282.16
2018-10-07T02:43:13.957Z,101273.79
2018-10-07T02:46:17.440Z,101275.19
2018-10-07T02:49:20.956Z,101279.90
2018-10-07T02:52:29.713Z,101284.47
2018-10-07T02:55:33.274Z,101290.72
2018-10-07T02:58:36.768Z,101291.13
2018-10-07T03:01:40.352Z,101289.38
2018-10-07T03:04:43.909Z,101297.40
2018-10-07T03:07:49.020Z,101302.34
2018-10-07T03:10:52.511Z,101305.24
2018-10-07T03:13:56.001Z,101312.71
2018-10-07T03:16:59.520Z,101319.04
2018-10-07T03:20:03.045Z,101314.38
2018-10-07T03:23:06.582Z,101317.74
2018-10-07T03:26:10.027Z,101316.69
2018-10-07T03:29:13.555Z,101321.67
2018-10-07T03:32:17.155Z,101320.18
2018-10-07T03:35:20.691Z,101316.10
2018-10-07T03:38:24.152Z,101317.41
2018-10-07T03:41:27.650Z,101319.83
2018-10-07T03:44:31.135Z,101331.67
2018-10-07T03:47:34.729Z,101333.34
2018-10-07T03:50:38.251Z,101336.38
2018-10-07T03:53:41.740Z,101339.19
2018-10-07T03:56:45.242Z,101339.03
2018-10-07T03:59:48.817Z,101331.29
2018-10-07T04:02:52.357Z,101330.36
2018-10-07T04:05:55.884Z,101335.89
2018-10-07T04:08:59.359Z,101333.25
2018-10-07T04:12:02.958Z,101333.17
2018-10-07T04:15:06.496Z,101338.31
2018-10-07T04:18:10.003Z,101333.71
2018-10-07T04:21:13.468Z,101342.44
2018-10-07T04:24:16.963Z,101336.64
2018-10-07T04:27:20.487Z,101341.69
2018-10-07T04:30:23.982Z,101347.69
2018-10-07T04:33:27.473Z,101353.76
2018-10-07T04:36:31.873Z,101351.00
2018-10-07T04:39:35.286Z,101353.78
2018-10-07T04:42:38.725Z,101366.34
2018-10-07T04:45:42.195Z,101365.66
2018-10-07T04:48:45.593Z,101368.00
2018-10-07T04:51:48.995Z,101370.89
2018-10-07T04:54:52.394Z,101374.68
2018-10-07T04:57:55.887Z,101384.58
2018-10-07T05:00:59.426Z,101388.77
2018-10-07T05:04:02.991Z,101395.83
2018-10-07T05:07:06.714Z,101396.49
2018-10-07T05:10:21.678Z,101399.07
2018-10-07T05:14:01.570Z,101408.65
2018-10-07T05:17:05.110Z,101424.71
2018-10-07T05:20:08.577Z,101427.43
2018-10-07T05:23:12.067Z,101428.40
2018-10-07T05:26:15.559Z,101432.76
2018-10-07T05:29:19.098Z,101434.32
2018-10-07T05:32:22.551Z,101439.22
2018-10-07T05:35:25.946Z,101438.46
2018-10-07T05:38:29.393Z,101447.83
2018-10-07T05:41:32.901Z,101457.60
2018-10-07T05:44:36.486Z,101457.09
2018-10-07T05:47:39.890Z,101461.48
2018-10-07T05:50:43.400Z,101467.18
2018-10-07T05:53:46.892Z,101465.45
2018-10-07T05:56:50.410Z,101479.07
2018-10-07T05:59:53.979Z,101481.41
2018-10-07T06:03:07.854Z,101487.40
2018-10-07T06:06:11.403Z,101486.08
2018-10-07T06:09:18.979Z,101491.80
2018-10-07T06:12:22.483Z,101494.79
2018-10-07T06:15:29.549Z,101498.96
2018-10-07T06:18:33.133Z,101500.03
2018-10-07T06:21:36.705Z,101508.24
2018-10-07T06:24:40.253Z,101512.31
2018-10-07T06:27:44.603Z,101511.11
2018-10-07T06:30:48.108Z,101513.91
2018-10-07T06:33:51.603Z,101513.50
2018-10-07T06:36:56.143Z,101520.30
2018-10-07T06:39:59.606Z,101523.88
2018-10-07T06:43:03.101Z,101527.28
2018-10-07T06:46:06.710Z,101539.13
2018-10-07T06:49:10.184Z,101537.61
2018-10-07T06:52:13.603Z,101540.19
2018-10-07T06:55:16.999Z,101548.45
2018-10-07T06:58:20.423Z,101555.68
2018-10-07T07:01:23.888Z,101555.61
2018-10-07T07:04:28.320Z,101557.47
2018-10-07T07:07:31.902Z,101557.44
2018-10-07T07:10:35.302Z,101548.38
2018-10-07T07:13:38.788Z,101550.89
2018-10-07T07:16:42.417Z,101544.38
2018-10-07T07:19:45.906Z,101543.96
2018-10-07T07:22:49.338Z,101552.20
2018-10-07T07:25:52.716Z,101552.08
2018-10-07T07:28:56.165Z,101553.40
2018-10-07T07:31:59.653Z,101547.70
2018-10-07T07:35:03.034Z,101556.87
2018-10-07T07:38:06.583Z,101570.46
2018-10-07T07:41:10.081Z,101584.16
2018-10-07T07:44:13.513Z,101591.83
2018-10-07T07:47:17.061Z,101595.54
2018-10-07T07:50:20.466Z,101610.42
2018-10-07T07:53:23.847Z,101611.65
2018-10-07T07:56:27.233Z,101614.73
2018-10-07T07:59:30.958Z,101623.20
2018-10-07T08:02:34.339Z,101632.05
2018-10-07T08:05:37.822Z,101645.95
2018-10-07T08:08:41.314Z,101651.47
2018-10-07T08:11:44.734Z,101655.35
2018-10-07T08:14:48.237Z,101654.96
2018-10-07T08:17:51.689Z,101660.10
2018-10-07T08:20:55.070Z,101656.18
2018-10-07T08:23:58.595Z,101662.86
2018-10-07T08:27:02.249Z,101663.91
2018-10-07T08:30:05.866Z,101659.82
2018-10-07T08:33:09.278Z,101662.48
2018-10-07T08:36:12.675Z,101667.09
2018-10-07T08:39:16.158Z,101670.70
2018-10-07T08:42:19.674Z,101673.64
2018-10-07T08:45:23.201Z,101680.19
2018-10-07T08:48:27.695Z,101675.33
2018-10-07T08:51:31.194Z,101675.10
2018-10-07T08:54:34.692Z,101675.78
2018-10-07T08:57:38.223Z,101671.95
2018-10-07T09:00:41.884Z,101670.99
2018-10-07T09:03:45.555Z,101672.67
2018-10-07T09:06:48.997Z,101667.73
2018-10-07T09:09:53.531Z,101672.64
2018-10-07T09:12:57.084Z,101667.25
2018-10-07T09:16:00.561Z,101665.22
2018-10-07T09:19:04.307Z,101667.21
2018-10-07T09:22:07.817Z,101668.55
2018-10-07T09:25:11.627Z,101665.39
2018-10-07T09:28:15.142Z,101660.92
2018-10-07T09:31:18.653Z,101664.15
2018-10-07T09:34:22.135Z,101664.11
2018-10-07T09:37:25.589Z,101668.38
2018-10-07T09:40:29.075Z,101671.31
2018-10-07T09:43:32.634Z,101674.26
2018-10-07T09:46:36.243Z,101671.88
2018-10-07T09:49:39.998Z,101676.77
2018-10-07T09:52:43.597Z,101673.01
2018-10-07T09:55:47.140Z,101673.14
2018-10-07T09:58:50.691Z,101674.72
2018-10-07T10:01:54.221Z,101675.76
2018-10-07T10:04:57.885Z,101680.88
2018-10-07T10:08:01.558Z,101686.27
2018-10-07T10:11:05.186Z,101684.43
2018-10-07T10:14:08.799Z,101684.31
2018-10-07T10:17:13.580Z,101686.20
2018-10-07T10:20:21.050Z,101689.13
2018-10-07T10:24:02.606Z,101689.45
2018-10-07T10:27:20.941Z,101682.37
2018-10-07T10:30:31.361Z,101690.13
2018-10-07T10:33:37.109Z,101682.79
2018-10-07T10:37:14.776Z,101684.24
2018-10-07T10:40:25.592Z,101686.55
2018-10-07T10:43:31.818Z,101694.23
2018-10-07T10:46:42.629Z,101688.36
2018-10-07T10:49:58.326Z,101690.49
2018-10-07T10:53:09.369Z,101699.61
2018-10-07T10:56:19.787Z,101705.91
2018-10-07T10:59:44.485Z,101713.54
2018-10-07T11:03:18.071Z,101712.88
2018-10-07T11:06:31.739Z,101703.63
2018-10-07T11:10:15.315Z,101715.91
2018-10-07T11:13:26.271Z,101717.45
2018-10-07T11:16:41.164Z,101720.80
2018-10-07T11:19:53.170Z,101719.87
2018-10-07T11:23:05.305Z,101718.45
2018-10-07T11:27:01.176Z,101719.34
2018-10-07T11:30:21.418Z,101717.15
2018-10-07T11:33:40.641Z,101712.08
2018-10-07T11:36:51.335Z,101716.45
2018-10-07T11:41:03.443Z,101719.24
2018-10-07T11:44:13.602Z,101716.10
2018-10-07T11:47:24.616Z,101720.41
2018-10-07T11:51:04.947Z,101716.09
2018-10-07T11:54:10.770Z,101713.11
2018-10-07T11:57:14.351Z,101708.36
2018-10-07T12:00:17.917Z,101713.29
2018-10-07T12:03:22.288Z,101701.02
2018-10-07T12:06:25.770Z,101711.52
2018-10-07T12:09:29.418Z,101699.74
2018-10-07T12:12:33.003Z,101695.78
2018-10-07T12:15:36.369Z,101695.61
2018-10-07T12:18:39.771Z,101700.93
2018-10-07T12:21:43.209Z,101702.01
2018-10-07T12:27:49.534Z,101700.68
2018-10-07T12:30:52.992Z,101700.10
2018-10-07T12:33:56.380Z,101697.97
2018-10-07T12:36:59.771Z,101703.83
2018-10-07T12:40:03.272Z,101716.47
2018-10-07T12:43:06.811Z,101709.33
2018-10-07T12:46:10.168Z,101707.80
2018-10-07T12:49:13.657Z,101704.69
2018-10-07T12:52:17.099Z,101705.94
2018-10-07T12:55:20.765Z,101696.79
2018-10-07T12:58:24.306Z,101701.57
2018-10-07T13:01:28.852Z,101696.90
2018-10-07T13:04:32.211Z,101698.02
2018-10-07T13:07:35.617Z,101697.40
2018-10-07T13:10:39.003Z,101700.25
2018-10-07T13:13:42.417Z,101706.94
2018-10-07T13:16:45.804Z,101706.87
2018-10-07T13:19:49.231Z,101708.36
2018-10-07T13:22:52.728Z,101710.63
2018-10-07T13:25:56.111Z,101711.53
2018-10-07T13:28:59.649Z,101708.41
2018-10-07T13:32:03.025Z,101706.37
2018-10-07T13:35:06.482Z,101713.58
2018-10-07T13:38:09.917Z,101718.26
2018-10-07T13:41:13.314Z,101719.40
2018-10-07T13:44:16.917Z,101722.71
2018-10-07T13:47:20.324Z,101712.09
2018-10-07T13:50:23.735Z,101717.98
2018-10-07T13:53:27.225Z,101710.02
2018-10-07T13:56:30.619Z,101702.13
2018-10-07T13:59:34.023Z,101703.22
2018-10-07T14:02:37.636Z,101701.75
2018-10-07T14:05:41.138Z,101700.38
2018-10-07T14:08:44.654Z,101701.05
2018-10-07T14:11:48.195Z,101717.31
2018-10-07T14:14:51.708Z,101713.20
2018-10-07T14:17:55.252Z,101716.29
2018-10-07T14:20:58.768Z,101721.44
2018-10-07T14:24:02.358Z,101724.51
2018-10-07T14:27:05.925Z,101726.96
2018-10-07T14:30:09.467Z,101726.29
2018-10-07T14:33:12.976Z,101727.28
2018-10-07T14:36:16.483Z,101732.54
2018-10-07T14:39:20.252Z,101734.93
2018-10-07T14:42:23.695Z,101735.83
2018-10-07T14:45:27.253Z,101744.67
2018-10-07T14:48:30.803Z,101743.23
2018-10-07T14:51:34.280Z,101745.81
2018-10-07T14:54:37.789Z,101761.07
2018-10-07T14:57:41.290Z,101766.51
2018-10-07T15:00:44.847Z,101767.46
2018-10-07T15:03:48.370Z,101767.44
2018-10-07T15:06:51.923Z,101769.09
2018-10-07T15:09:55.407Z,101774.77
2018-10-07T15:12:58.979Z,101766.72
2018-10-07T15:16:02.561Z,101770.23
2018-10-07T15:19:06.035Z,101769.96
2018-10-07T15:22:09.522Z,101777.48
2018-10-07T15:25:13.013Z,101783.52
2018-10-07T15:28:16.530Z,101785.15
2018-10-07T15:31:20.008Z,101781.39
2018-10-07T15:34:23.600Z,101786.11
2018-10-07T15:37:27.225Z,101780.84
2018-10-07T15:40:30.879Z,101782.91
2018-10-07T15:43:34.327Z,101787.90
2018-10-07T15:46:37.861Z,101784.27
2018-10-07T15:49:41.355Z,101791.14
2018-10-07T15:52:44.935Z,101794.16
2018-10-07T15:55:48.576Z,101796.48
2018-10-07T15:58:52.181Z,101800.58
2018-10-07T16:01:55.691Z,101806.19
2018-10-07T16:04:59.256Z,101805.92
2018-10-07T16:08:02.891Z,101807.98
2018-10-07T16:11:06.905Z,101815.79
2018-10-07T16:14:10.469Z,101813.14
2018-10-07T16:17:13.869Z,101822.63
2018-10-07T16:20:17.313Z,101824.98
2018-10-07T16:23:21.255Z,101831.07
2018-10-07T16:26:24.878Z,101835.56
2018-10-07T16:29:28.399Z,101833.69
2018-10-07T16:32:31.934Z,101844.37
2018-10-07T16:35:35.468Z,101842.24
2018-10-07T16:38:39.015Z,101851.79
2018-10-07T16:41:42.540Z,101851.04
2018-10-07T16:44:47.797Z,101860.88
2018-10-07T16:47:51.264Z,101865.19
2018-10-07T16:50:54.654Z,101872.23
2018-10-07T16:53:58.055Z,101872.72
2018-10-07T16:57:01.615Z,101880.22
2018-10-07T17:00:05.492Z,101883.59
2018-10-07T17:03:08.977Z,101887.68
2018-10-07T17:06:12.364Z,101895.82
2018-10-07T17:09:15.909Z,101904.79
2018-10-07T17:12:19.416Z,101909.28
2018-10-07T17:15:23.041Z,101916.09
2018-10-07T17:18:26.455Z,101922.01
2018-10-07T17:21:30.202Z,101929.43
2018-10-07T17:24:33.979Z,101937.83
2018-10-07T17:27:37.405Z,101939.78
2018-10-07T17:30:40.810Z,101949.26
2018-10-07T17:33:44.326Z,101953.37
2018-10-07T17:36:47.803Z,101965.21
2018-10-07T17:39:51.348Z,101968.17
2018-10-07T17:42:54.868Z,101982.00
2018-10-07T17:45:58.299Z,101987.03
2018-10-07T17:49:01.938Z,101987.54
2018-10-07T17:52:05.139Z,102008.55
2018-10-07T17:55:08.523Z,102020.66
2018-10-07T17:58:11.900Z,102024.65
2018-10-07T18:01:15.447Z,102025.41
2018-10-07T18:04:18.820Z,102033.51
2018-10-07T18:07:22.276Z,102039.19
2018-10-07T18:10:25.844Z,102051.83
2018-10-07T18:13:29.329Z,102054.41
2018-10-07T18:16:32.848Z,102060.79
2018-10-07T18:19:36.299Z,102066.63
2018-10-07T18:22:39.707Z,102064.33
2018-10-07T18:25:43.117Z,102072.93
2018-10-07T18:28:46.528Z,102086.31
2018-10-07T18:31:49.924Z,102089.06
2018-10-07T18:34:53.437Z,102091.37
2018-10-07T18:37:56.815Z,102097.14
2018-10-07T18:41:00.375Z,102103.30
2018-10-07T18:44:03.787Z,102109.76
2018-10-07T18:47:07.334Z,102112.07
2018-10-07T18:50:10.730Z,102120.47
2018-10-07T18:53:14.125Z,102121.84
2018-10-07T18:56:17.605Z,102121.71
2018-10-07T18:59:21.029Z,102124.06
2018-10-07T19:02:24.616Z,102118.92
2018-10-07T19:05:28.011Z,102113.10
2018-10-07T19:08:31.711Z,102122.71
2018-10-07T19:11:35.058Z,102130.21
2018-10-07T19:14:38.593Z,102133.39
2018-10-07T19:17:42.043Z,102135.33
2018-10-07T19:20:45.604Z,102139.25
2018-10-07T19:23:49.046Z,102147.61
2018-10-07T19:26:52.564Z,102157.81
2018-10-07T19:29:56.150Z,102168.20
2018-10-07T19:32:59.658Z,102167.45
2018-10-07T19:36:03.424Z,102163.13
2018-10-07T19:39:09.050Z,102167.75
2018-10-07T19:42:12.530Z,102174.18
2018-10-07T19:45:16.132Z,102181.16
2018-10-07T19:48:19.632Z,102183.27
2018-10-07T19:51:24.046Z,102192.23
2018-10-07T19:54:27.545Z,102196.12
2018-10-07T19:57:31.179Z,102193.71
2018-10-07T20:00:34.825Z,102198.44
2018-10-07T20:03:38.243Z,102193.66
2018-10-07T20:06:41.778Z,102199.56
2018-10-07T20:09:45.267Z,102200.69
2018-10-07T20:12:48.768Z,102203.86
2018-10-07T20:15:52.280Z,102210.61
2018-10-07T20:18:55.831Z,102208.68
2018-10-07T20:21:59.292Z,102216.74
2018-10-07T20:25:02.824Z,102213.98
2018-10-07T20:28:06.307Z,102210.76
2018-10-07T20:31:09.796Z,102212.55
2018-10-07T20:34:13.277Z,102219.48
2018-10-07T20:37:16.770Z,102224.24
2018-10-07T20:40:20.393Z,102226.11
2018-10-07T20:43:23.785Z,102226.93
2018-10-07T20:46:27.324Z,102233.88
2018-10-07T20:49:30.815Z,102234.72
2018-10-07T20:52:34.368Z,102235.20
2018-10-07T20:55:37.791Z,102230.21
2018-10-07T20:58:41.293Z,102231.25
2018-10-07T21:01:44.703Z,102239.40
2018-10-07T21:04:48.199Z,102235.23
2018-10-07T21:07:51.706Z,102244.23
2018-10-07T21:10:55.199Z,102244.86
2018-10-07T21:13:58.769Z,102244.47
2018-10-07T21:17:02.260Z,102247.89
2018-10-07T21:20:05.749Z,102251.64
2018-10-07T21:23:09.209Z,102247.01
2018-10-07T21:26:12.642Z,102243.82
2018-10-07T21:29:16.140Z,102241.21
2018-10-07T21:32:19.611Z,102236.28
2018-10-07T21:35:23.115Z,102242.58
2018-10-07T21:38:26.520Z,102240.59
2018-10-07T21:41:30.025Z,102237.21
2018-10-07T21:44:33.418Z,102235.40
2018-10-07T21:47:36.901Z,102245.00
2018-10-07T21:50:40.308Z,102246.19
2018-10-07T21:53:43.739Z,102250.34
2018-10-07T21:56:47.246Z,102253.54
2018-10-07T21:59:50.715Z,102255.13
2018-10-07T22:02:54.231Z,102252.71
2018-10-07T22:05:57.730Z,102248.85
2018-10-07T22:09:01.138Z,102243.47
2018-10-07T22:12:04.540Z,102246.31
2018-10-07T22:15:08.003Z,102243.29
2018-10-07T22:18:11.432Z,102242.36
2018-10-07T22:21:14.835Z,102251.40
2018-10-07T22:24:18.249Z,102255.49
2018-10-07T22:27:21.660Z,102247.31
2018-10-07T22:30:25.249Z,102243.26
2018-10-07T22:33:28.708Z,102245.67
2018-10-07T22:36:32.110Z,102249.51
2018-10-07T22:39:35.634Z,102250.35
2018-10-07T22:42:39.041Z,102256.34
2018-10-07T22:45:42.425Z,102262.61
2018-10-07T22:48:45.965Z,102258.55
2018-10-07T22:51:53.656Z,102257.28
2018-10-07T22:54:57.053Z,102258.67
2018-10-07T22:58:00.439Z,102261.91
2018-10-07T23:01:03.860Z,102264.42
2018-10-07T23:04:07.258Z,102268.12
2018-10-07T23:07:10.743Z,102268.17
2018-10-07T23:10:14.457Z,102271.29
2018-10-07T23:13:17.857Z,102265.33
2018-10-07T23:16:21.245Z,102258.64
2018-10-07T23:19:24.644Z,102262.72
2018-10-07T23:22:28.066Z,102262.28
2018-10-07T23:25:31.477Z,102272.42
2018-10-07T23:28:34.854Z,102269.21
2018-10-07T23:31:38.323Z,102265.53
2018-10-07T23:34:41.785Z,102268.50
2018-10-07T23:37:45.246Z,102270.05
2018-10-07T23:40:50.590Z,102274.74
2018-10-07T23:43:54.006Z,102271.01
2018-10-07T23:46:57.400Z,102264.85
2018-10-07T23:50:01.854Z,102263.80
2018-10-07T23:53:05.402Z,102263.80
2018-10-07T23:56:08.824Z,102261.31
2018-10-07T23:59:12.499Z,102257.13
